Time;durP1;ratioP1;P1;durP2;ratioP2;P2;SDS_P1;SDS_P2;PMS_P1;PMS_P2;Temp;Humidity;BMP_temperature;BMP_pressure;BME280_temperature;BME280_humidity;BME280_pressure;Samples;Min_cycle;Max_cycle;Signal;HPM_P1;HPM_P2
2021/05/22 00:01:57;;;;;;;;;;;13.00;99.90;;;;;;5116185;28;19961;-70
2021/05/22 00:04:24;;;;;;;;;;;13.10;99.90;;;;;;5114892;28;19908;-70
2021/05/22 00:06:51;;;;;;;;;;;13.20;99.90;;;;;;5114656;28;20401;-68
2021/05/22 00:09:17;;;;;;;;;;;13.30;99.90;;;;;;5114624;28;19933;-70
2021/05/22 00:11:44;;;;;;;;;;;13.40;99.90;;;;;;5114739;28;19923;-69
2021/05/22 00:14:11;;;;;;;;;;;13.40;99.90;;;;;;5113840;28;20312;-70
2021/05/22 00:16:37;;;;;;;;;;;13.50;99.90;;;;;;5114952;28;19950;-70
2021/05/22 00:19:04;;;;;;;;;;;13.50;99.90;;;;;;5114210;28;19915;-67
2021/05/22 00:21:34;;;;;;;;;;;13.60;99.90;;;;;;5114497;28;19994;-67
2021/05/22 00:24:01;;;;;;;;;;;13.70;99.90;;;;;;5114421;28;19951;-69
2021/05/22 00:26:28;;;;;;;;;;;13.80;99.90;;;;;;5114542;28;19927;-70
2021/05/22 00:28:54;;;;;;;;;;;13.80;99.90;;;;;;5114469;28;19915;-70
2021/05/22 00:31:21;;;;;;;;;;;13.80;99.90;;;;;;5113259;28;19916;-68
2021/05/22 00:33:47;;;;;;;;;;;13.90;99.90;;;;;;5114627;28;19908;-69
2021/05/22 00:36:14;;;;;;;;;;;13.90;99.90;;;;;;5114488;28;20441;-71
2021/05/22 00:38:41;;;;;;;;;;;14.00;99.90;;;;;;5114402;28;19908;-67
2021/05/22 00:41:08;;;;;;;;;;;14.10;99.90;;;;;;5113975;28;19968;-71
2021/05/22 00:43:34;;;;;;;;;;;14.20;99.90;;;;;;5114054;28;19926;-68
2021/05/22 00:46:01;;;;;;;;;;;14.30;99.90;;;;;;5114402;28;19957;-67
2021/05/22 00:48:28;;;;;;;;;;;14.30;99.90;;;;;;5114504;28;20318;-69
2021/05/22 00:50:54;;;;;;;;;;;14.40;99.90;;;;;;5113667;28;19915;-68
2021/05/22 00:53:21;;;;;;;;;;;14.40;99.90;;;;;;5114382;28;19965;-69
2021/05/22 00:55:48;;;;;;;;;;;14.40;99.90;;;;;;5114293;28;19994;-70
2021/05/22 00:58:14;;;;;;;;;;;14.60;99.90;;;;;;5114137;28;20365;-69
2021/05/22 01:00:41;;;;;;;;;;;14.70;99.90;;;;;;5113629;28;19983;-69
2021/05/22 01:03:08;;;;;;;;;;;14.90;99.90;;;;;;5113684;28;19908;-70
2021/05/22 01:05:36;;;;;;;;;;;15.10;99.90;;;;;;5113473;28;20037;-69
2021/05/22 01:08:11;;;;;;;;;;;15.60;99.90;;;;;;5113681;28;19907;-69
2021/05/22 01:10:37;;;;;;;;;;;15.80;99.90;;;;;;5112729;28;20230;-68
2021/05/22 01:13:04;;;;;;;;;;;15.90;99.90;;;;;;5113483;28;19945;-70
2021/05/22 01:15:32;;;;;;;;;;;15.90;99.90;;;;;;5113784;28;19947;-70
2021/05/22 01:17:59;;;;;;;;;;;15.90;99.90;;;;;;5113657;28;19917;-70
2021/05/22 01:20:55;;;;;;;;;;;16.10;99.90;;;;;;5113435;28;19908;-71
2021/05/22 01:23:27;;;;;;;;;;;16.10;99.90;;;;;;5099978;28;19908;-71
2021/05/22 01:25:56;;;;;;;;;;;16.00;99.90;;;;;;5113684;28;19915;-70
2021/05/22 01:28:23;;;;;;;;;;;16.00;99.90;;;;;;5113434;28;19961;-71
2021/05/22 01:30:50;;;;;;;;;;;15.90;99.90;;;;;;5111952;28;19935;-70
2021/05/22 01:33:19;;;;;;;;;;;15.90;99.90;;;;;;5113546;28;19908;-70
2021/05/22 01:35:45;;;;;;;;;;;15.90;99.90;;;;;;5113225;28;20324;-70
2021/05/22 01:38:12;;;;;;;;;;;15.80;99.90;;;;;;5113263;28;19911;-68
2021/05/22 01:40:39;;;;;;;;;;;15.80;99.90;;;;;;5113261;28;19914;-71
2021/05/22 01:43:06;;;;;;;;;;;15.80;99.90;;;;;;5112856;28;19916;-70
2021/05/22 01:45:34;;;;;;;;;;;15.90;99.90;;;;;;5113210;28;19985;-71
2021/05/22 01:48:03;;;;;;;;;;;15.90;99.90;;;;;;5113198;28;19912;-70
2021/05/22 01:50:33;;;;;;;;;;;16.00;99.90;;;;;;5113124;28;19915;-71
2021/05/22 01:53:01;;;;;;;;;;;16.10;99.90;;;;;;5113599;28;19908;-71
2021/05/22 01:55:28;;;;;;;;;;;16.20;99.90;;;;;;5117253;28;19908;-71
2021/05/22 01:57:55;;;;;;;;;;;16.20;99.90;;;;;;5116985;27;19984;-71
2021/05/22 02:00:22;;;;;;;;;;;16.10;99.90;;;;;;5117005;28;19915;-71
2021/05/22 02:03:18;;;;;;;;;;;16.10;99.90;;;;;;5116905;28;19960;-72
2021/05/22 02:05:48;;;;;;;;;;;16.20;99.90;;;;;;5103672;28;19908;-71
2021/05/22 02:08:18;;;;;;;;;;;16.20;99.90;;;;;;5117106;28;19908;-72
2021/05/22 02:10:47;;;;;;;;;;;16.20;99.90;;;;;;5116705;28;19912;-72
2021/05/22 02:13:14;;;;;;;;;;;16.20;99.90;;;;;;5116813;28;20357;-70
2021/05/22 02:15:42;;;;;;;;;;;16.40;99.90;;;;;;5117077;28;19915;-72
2021/05/22 02:18:10;;;;;;;;;;;16.40;99.90;;;;;;5116903;28;20131;-71
2021/05/22 02:20:37;;;;;;;;;;;16.30;99.90;;;;;;5116614;28;19908;-72
2021/05/22 02:23:04;;;;;;;;;;;16.30;99.90;;;;;;5116555;28;19908;-73
2021/05/22 02:25:31;;;;;;;;;;;16.30;99.90;;;;;;5116781;28;19983;-73
2021/05/22 02:28:01;;;;;;;;;;;16.40;99.90;;;;;;5116767;28;19961;-72
2021/05/22 02:30:27;;;;;;;;;;;16.50;99.90;;;;;;5116666;28;20372;-72
2021/05/22 02:32:55;;;;;;;;;;;16.50;99.90;;;;;;5116667;28;19914;-71
2021/05/22 02:35:22;;;;;;;;;;;16.60;99.90;;;;;;5116370;28;19915;-72
2021/05/22 02:37:50;;;;;;;;;;;16.60;99.90;;;;;;5116492;28;19907;-71
2021/05/22 02:40:22;;;;;;;;;;;16.60;99.90;;;;;;5116390;28;19966;-72
2021/05/22 02:43:01;;;;;;;;;;;16.50;99.90;;;;;;5116124;28;19919;-73
2021/05/22 02:45:28;;;;;;;;;;;16.50;99.90;;;;;;5116233;28;20358;-71
2021/05/22 02:47:56;;;;;;;;;;;16.40;99.90;;;;;;5116427;28;19908;-73
2021/05/22 02:50:24;;;;;;;;;;;16.40;99.90;;;;;;5116143;28;20305;-73
2021/05/22 02:52:52;;;;;;;;;;;16.50;99.90;;;;;;5116036;28;20270;-73
2021/05/22 02:55:19;;;;;;;;;;;16.40;99.90;;;;;;5116292;28;19908;-73
2021/05/22 02:57:45;;;;;;;;;;;16.30;99.90;;;;;;5116214;28;19908;-73
2021/05/22 03:00:12;;;;;;;;;;;16.30;99.90;;;;;;5116028;28;19908;-72
2021/05/22 03:02:39;;;;;;;;;;;16.30;99.90;;;;;;5116142;28;20343;-73
2021/05/22 03:05:06;;;;;;;;;;;16.30;99.90;;;;;;5115421;28;19908;-72
2021/05/22 03:07:34;;;;;;;;;;;16.40;99.90;;;;;;5114609;28;20262;-72
2021/05/22 03:10:01;;;;;;;;;;;16.50;99.90;;;;;;5115844;28;19908;-72
2021/05/22 03:12:35;;;;;;;;;;;16.50;99.90;;;;;;5115988;28;19916;-72
2021/05/22 03:15:03;;;;;;;;;;;16.40;99.90;;;;;;5115619;28;19915;-72
2021/05/22 03:17:30;;;;;;;;;;;16.50;99.90;;;;;;5115820;28;20340;-71
2021/05/22 03:19:57;;;;;;;;;;;16.60;99.90;;;;;;5115600;28;19908;-71
2021/05/22 03:22:24;;;;;;;;;;;16.50;99.90;;;;;;5115843;28;19935;-72
2021/05/22 03:24:50;;;;;;;;;;;16.40;99.90;;;;;;5115654;28;20344;-73
2021/05/22 03:27:17;;;;;;;;;;;16.50;99.90;;;;;;5115602;28;20298;-72
2021/05/22 03:29:44;;;;;;;;;;;16.60;99.90;;;;;;5115352;28;19915;-71
2021/05/22 03:32:10;;;;;;;;;;;16.70;99.90;;;;;;5115535;28;19920;-72
2021/05/22 03:34:37;;;;;;;;;;;16.70;99.90;;;;;;5115370;28;19908;-72
2021/05/22 03:37:04;;;;;;;;;;;16.60;99.90;;;;;;5115218;28;20378;-72
2021/05/22 03:39:30;;;;;;;;;;;16.80;99.90;;;;;;5115498;28;19912;-72
2021/05/22 03:41:57;;;;;;;;;;;16.70;99.90;;;;;;5115311;28;19933;-71
2021/05/22 03:44:24;;;;;;;;;;;16.60;99.90;;;;;;5115050;28;20208;-72
2021/05/22 03:46:50;;;;;;;;;;;16.60;99.90;;;;;;5115139;28;19911;-73
2021/05/22 03:49:17;;;;;;;;;;;16.50;99.90;;;;;;5115276;28;19953;-73
2021/05/22 03:51:44;;;;;;;;;;;16.50;99.90;;;;;;5115041;28;19954;-72
2021/05/22 03:54:10;;;;;;;;;;;16.40;99.90;;;;;;5114879;28;20460;-72
2021/05/22 03:56:37;;;;;;;;;;;16.50;99.90;;;;;;5115117;28;19911;-72
2021/05/22 03:59:04;;;;;;;;;;;16.70;99.90;;;;;;5114766;28;19907;-72
2021/05/22 04:01:30;;;;;;;;;;;16.90;99.90;;;;;;5114940;28;20415;-72
2021/05/22 04:03:57;;;;;;;;;;;16.90;99.90;;;;;;5114898;28;19908;-72
2021/05/22 04:06:24;;;;;;;;;;;16.80;99.90;;;;;;5114768;28;19915;-72
2021/05/22 04:08:50;;;;;;;;;;;16.70;99.90;;;;;;5114542;28;19918;-73
2021/05/22 04:11:17;;;;;;;;;;;16.70;99.90;;;;;;5114700;28;19916;-73
2021/05/22 04:13:44;;;;;;;;;;;16.70;99.90;;;;;;5114805;28;20366;-73
2021/05/22 04:16:10;;;;;;;;;;;16.80;99.90;;;;;;5114139;28;19912;-72
2021/05/22 04:18:37;;;;;;;;;;;17.10;99.90;;;;;;5114575;28;20354;-71
2021/05/22 04:21:04;;;;;;;;;;;17.20;99.90;;;;;;5114341;28;19908;-73
2021/05/22 04:23:31;;;;;;;;;;;17.20;99.90;;;;;;5114566;28;19908;-73
2021/05/22 04:25:58;;;;;;;;;;;17.20;99.90;;;;;;5114663;28;19908;-73
2021/05/22 04:28:25;;;;;;;;;;;17.30;99.90;;;;;;5114306;28;19968;-71
2021/05/22 04:30:51;;;;;;;;;;;17.40;99.90;;;;;;5113995;28;20379;-73
2021/05/22 04:33:18;;;;;;;;;;;17.40;99.90;;;;;;5114534;28;19998;-73
2021/05/22 04:35:45;;;;;;;;;;;17.30;99.90;;;;;;5114538;28;19908;-73
2021/05/22 04:38:12;;;;;;;;;;;17.20;99.90;;;;;;5114703;28;19953;-72
2021/05/22 04:40:38;;;;;;;;;;;17.30;99.90;;;;;;5114818;28;19935;-73
2021/05/22 04:43:05;;;;;;;;;;;17.30;99.90;;;;;;5113918;28;19923;-72
2021/05/22 04:45:32;;;;;;;;;;;17.40;99.90;;;;;;5113862;28;19916;-72
2021/05/22 04:47:59;;;;;;;;;;;17.40;99.90;;;;;;5114118;28;20381;-71
2021/05/22 04:50:28;;;;;;;;;;;17.40;99.90;;;;;;5113899;28;20273;-72
2021/05/22 04:52:55;;;;;;;;;;;17.30;99.90;;;;;;5113938;28;20006;-72
2021/05/22 04:55:22;;;;;;;;;;;17.30;99.90;;;;;;5114056;28;19969;-72
2021/05/22 04:57:48;;;;;;;;;;;17.30;99.90;;;;;;5113898;28;19954;-73
2021/05/22 05:00:15;;;;;;;;;;;17.20;99.90;;;;;;5113955;28;20007;-74
2021/05/22 05:02:42;;;;;;;;;;;17.20;99.90;;;;;;5113905;28;20003;-72
2021/05/22 05:05:09;;;;;;;;;;;17.20;99.90;;;;;;5113765;28;19954;-73
2021/05/22 05:07:35;;;;;;;;;;;17.10;99.90;;;;;;5113653;28;19912;-74
2021/05/22 05:10:02;;;;;;;;;;;17.10;99.90;;;;;;5113740;28;19908;-74
2021/05/22 05:12:29;;;;;;;;;;;17.20;99.90;;;;;;5112212;28;19920;-72
2021/05/22 05:14:55;;;;;;;;;;;17.20;99.90;;;;;;5113569;28;19916;-74
2021/05/22 05:17:22;;;;;;;;;;;17.20;99.90;;;;;;5113659;28;20255;-73
2021/05/22 05:19:49;;;;;;;;;;;17.20;99.90;;;;;;5113367;28;20270;-73
2021/05/22 05:22:16;;;;;;;;;;;17.10;99.90;;;;;;5113807;28;19916;-73
2021/05/22 05:24:45;;;;;;;;;;;17.10;99.90;;;;;;5111993;28;19912;-73
2021/05/22 05:27:12;;;;;;;;;;;17.10;99.90;;;;;;5112967;28;19994;-74
2021/05/22 05:29:40;;;;;;;;;;;17.20;99.90;;;;;;5113124;28;19908;-73
2021/05/22 05:32:08;;;;;;;;;;;17.10;99.90;;;;;;5113383;28;19916;-73
2021/05/22 05:34:34;;;;;;;;;;;17.10;99.90;;;;;;5113349;28;19911;-73
2021/05/22 05:37:01;;;;;;;;;;;17.10;99.90;;;;;;5113294;28;19908;-73
2021/05/22 05:39:28;;;;;;;;;;;17.10;99.90;;;;;;5113364;28;19915;-73
2021/05/22 05:41:55;;;;;;;;;;;17.20;99.90;;;;;;5113491;28;19908;-73
2021/05/22 05:44:21;;;;;;;;;;;17.00;99.90;;;;;;5113267;28;20335;-73
2021/05/22 05:46:48;;;;;;;;;;;17.00;99.90;;;;;;5113257;28;19911;-74
2021/05/22 05:49:15;;;;;;;;;;;17.00;99.90;;;;;;5113198;28;20304;-74
2021/05/22 05:51:41;;;;;;;;;;;16.90;99.90;;;;;;5113169;28;20373;-74
2021/05/22 05:54:08;;;;;;;;;;;17.00;99.90;;;;;;5113342;28;19908;-74
2021/05/22 05:56:35;;;;;;;;;;;17.00;99.90;;;;;;5113043;28;20281;-74
2021/05/22 05:59:01;;;;;;;;;;;16.90;99.90;;;;;;5113075;28;19916;-73
2021/05/22 06:01:28;;;;;;;;;;;16.80;99.90;;;;;;5113211;28;19930;-73
2021/05/22 06:03:55;;;;;;;;;;;16.70;99.90;;;;;;5113005;28;20021;-72
2021/05/22 06:06:21;;;;;;;;;;;16.70;99.90;;;;;;5113112;28;19930;-72
2021/05/22 06:08:48;;;;;;;;;;;16.70;99.90;;;;;;5112892;28;19923;-72
2021/05/22 06:11:18;;;;;;;;;;;16.70;99.90;;;;;;5112958;28;20251;-72
2021/05/22 06:13:44;;;;;;;;;;;16.60;99.90;;;;;;5113123;28;19908;-72
2021/05/22 06:18:38;;;;;;;;;;;16.50;99.90;;;;;;5113042;28;20342;-71
2021/05/22 06:21:07;;;;;;;;;;;16.50;99.90;;;;;;5111450;28;20318;-71
2021/05/22 06:23:34;;;;;;;;;;;16.40;99.90;;;;;;5113017;28;19915;-72
2021/05/22 06:26:00;;;;;;;;;;;16.40;99.90;;;;;;5112822;28;19916;-71
2021/05/22 06:28:28;;;;;;;;;;;16.30;99.90;;;;;;5112714;28;19908;-71
2021/05/22 06:30:59;;;;;;;;;;;16.30;99.90;;;;;;5112807;28;20002;-72
2021/05/22 06:33:25;;;;;;;;;;;16.20;99.90;;;;;;5112914;28;19912;-73
2021/05/22 06:35:52;;;;;;;;;;;16.20;99.90;;;;;;5112752;28;20006;-72
2021/05/22 06:38:19;;;;;;;;;;;16.10;99.90;;;;;;5112771;28;19908;-73
2021/05/22 06:40:46;;;;;;;;;;;16.10;99.90;;;;;;5115869;28;19934;-70
2021/05/22 06:43:12;;;;;;;;;;;16.00;99.90;;;;;;5116489;28;19951;-73
2021/05/22 06:45:41;;;;;;;;;;;16.00;99.90;;;;;;5116630;28;19954;-73
2021/05/22 06:48:08;;;;;;;;;;;15.90;99.90;;;;;;5117025;28;19956;-74
2021/05/22 06:50:36;;;;;;;;;;;15.80;99.90;;;;;;5116293;28;19916;-72
2021/05/22 06:53:03;;;;;;;;;;;15.80;99.90;;;;;;5116209;28;20290;-73
2021/05/22 06:55:30;;;;;;;;;;;15.80;99.90;;;;;;5116089;28;19916;-72
2021/05/22 06:57:57;;;;;;;;;;;15.80;99.90;;;;;;5116193;28;19907;-72
2021/05/22 07:00:24;;;;;;;;;;;15.80;99.90;;;;;;5115990;28;19908;-72
2021/05/22 07:02:51;;;;;;;;;;;15.70;99.90;;;;;;5115986;28;19911;-73
2021/05/22 07:05:17;;;;;;;;;;;15.70;99.90;;;;;;5115951;28;20315;-72
2021/05/22 07:07:44;;;;;;;;;;;15.70;99.90;;;;;;5116065;28;19915;-71
2021/05/22 07:10:11;;;;;;;;;;;15.70;99.90;;;;;;5115783;28;19911;-72
2021/05/22 07:12:38;;;;;;;;;;;15.60;99.90;;;;;;5114604;28;19959;-72
2021/05/22 07:15:06;;;;;;;;;;;15.60;99.90;;;;;;5115720;28;20010;-74
2021/05/22 07:17:33;;;;;;;;;;;15.50;99.90;;;;;;5115817;28;19916;-71
2021/05/22 07:20:00;;;;;;;;;;;15.50;99.90;;;;;;5115536;28;19908;-73
2021/05/22 07:22:26;;;;;;;;;;;15.40;99.90;;;;;;5115602;28;19908;-72
2021/05/22 07:24:53;;;;;;;;;;;15.40;99.90;;;;;;5115324;28;20308;-72
2021/05/22 07:27:20;;;;;;;;;;;15.40;99.90;;;;;;5115489;28;19908;-70
2021/05/22 07:29:48;;;;;;;;;;;15.40;99.90;;;;;;5115480;28;19915;-71
2021/05/22 07:32:15;;;;;;;;;;;15.40;99.90;;;;;;5115385;28;20370;-73
2021/05/22 07:34:42;;;;;;;;;;;15.40;99.90;;;;;;5115342;28;19908;-71
2021/05/22 07:37:08;;;;;;;;;;;15.40;99.90;;;;;;5115199;28;19985;-73
2021/05/22 07:39:35;;;;;;;;;;;15.30;99.90;;;;;;5115209;28;19908;-71
2021/05/22 07:42:02;;;;;;;;;;;15.30;99.90;;;;;;5115348;28;19912;-69
2021/05/22 07:44:28;;;;;;;;;;;15.30;99.90;;;;;;5113898;28;19926;-73
2021/05/22 07:46:55;;;;;;;;;;;15.30;99.90;;;;;;5115477;28;19982;-70
2021/05/22 07:49:22;;;;;;;;;;;15.20;99.90;;;;;;5115223;28;19911;-70
2021/05/22 07:51:49;;;;;;;;;;;15.20;99.90;;;;;;5114133;28;19916;-72
2021/05/22 07:54:15;;;;;;;;;;;15.20;99.90;;;;;;5114809;28;19907;-69
2021/05/22 07:56:42;;;;;;;;;;;15.20;99.90;;;;;;5115142;28;19961;-72
2021/05/22 07:59:08;;;;;;;;;;;15.20;99.90;;;;;;5115086;28;20358;-71
2021/05/22 08:01:35;;;;;;;;;;;15.10;99.90;;;;;;5114984;28;20011;-71
2021/05/22 08:04:02;;;;;;;;;;;15.10;99.90;;;;;;5114853;28;20342;-71
2021/05/22 08:06:28;;;;;;;;;;;15.10;99.90;;;;;;5114908;28;20358;-69
2021/05/22 08:08:55;;;;;;;;;;;15.10;99.90;;;;;;5114558;28;20037;-71
2021/05/22 08:11:22;;;;;;;;;;;15.10;99.90;;;;;;5114830;28;20381;-71
2021/05/22 08:13:48;;;;;;;;;;;15.10;99.90;;;;;;5114691;28;19907;-68
2021/05/22 08:16:15;;;;;;;;;;;15.10;99.90;;;;;;5114573;28;19960;-71
2021/05/22 08:18:41;;;;;;;;;;;15.10;99.90;;;;;;5114469;28;19908;-71
2021/05/22 08:21:08;;;;;;;;;;;15.10;99.90;;;;;;5114994;28;20266;-71
2021/05/22 08:23:35;;;;;;;;;;;15.00;99.90;;;;;;5114086;28;20331;-71
2021/05/22 08:26:01;;;;;;;;;;;15.00;99.90;;;;;;5114488;28;20270;-71
2021/05/22 08:28:29;;;;;;;;;;;15.00;99.90;;;;;;5114525;28;20006;-71
2021/05/22 08:30:58;;;;;;;;;;;15.00;99.90;;;;;;5114144;28;19920;-72
2021/05/22 08:33:25;;;;;;;;;;;15.00;99.90;;;;;;5113968;28;19908;-72
2021/05/22 08:35:52;;;;;;;;;;;14.90;99.90;;;;;;5114290;28;20060;-73
2021/05/22 08:38:18;;;;;;;;;;;15.00;99.90;;;;;;5114227;28;19907;-72
2021/05/22 08:40:45;;;;;;;;;;;14.90;99.90;;;;;;5114052;28;19941;-73
2021/05/22 08:43:11;;;;;;;;;;;14.90;99.90;;;;;;5113968;28;19919;-71
2021/05/22 08:45:39;;;;;;;;;;;14.90;99.90;;;;;;5114266;28;19915;-72
2021/05/22 08:48:06;;;;;;;;;;;15.00;99.90;;;;;;5113926;28;19957;-72
2021/05/22 08:50:33;;;;;;;;;;;14.90;99.90;;;;;;5114380;28;19915;-70
2021/05/22 08:53:00;;;;;;;;;;;14.80;99.90;;;;;;5113733;28;19955;-70
2021/05/22 08:55:26;;;;;;;;;;;14.80;99.90;;;;;;5114015;28;19966;-72
2021/05/22 08:57:53;;;;;;;;;;;14.70;99.90;;;;;;5114072;28;19942;-71
2021/05/22 09:00:22;;;;;;;;;;;14.80;99.90;;;;;;5113855;28;19995;-72
2021/05/22 09:02:49;;;;;;;;;;;14.70;99.90;;;;;;5113268;28;19988;-72
2021/05/22 09:05:21;;;;;;;;;;;14.70;99.90;;;;;;5113885;28;19931;-72
2021/05/22 09:07:48;;;;;;;;;;;14.70;99.90;;;;;;5113728;28;19969;-72
2021/05/22 09:10:14;;;;;;;;;;;14.70;99.90;;;;;;5113793;28;19990;-72
2021/05/22 09:12:42;;;;;;;;;;;14.70;99.90;;;;;;5113739;28;20282;-70
2021/05/22 09:15:11;;;;;;;;;;;14.70;99.90;;;;;;5113548;28;20320;-72
2021/05/22 09:17:39;;;;;;;;;;;14.60;99.90;;;;;;5113511;28;19908;-73
2021/05/22 09:20:12;;;;;;;;;;;14.60;99.90;;;;;;5113366;28;19915;-73
2021/05/22 09:22:39;;;;;;;;;;;14.60;99.90;;;;;;5113497;28;19908;-73
2021/05/22 09:25:06;;;;;;;;;;;14.60;99.90;;;;;;5113246;28;19915;-72
2021/05/22 09:27:42;;;;;;;;;;;14.60;99.90;;;;;;5113619;28;19912;-71
2021/05/22 09:30:15;;;;;;;;;;;14.60;99.90;;;;;;5114011;28;19915;-75
2021/05/22 09:32:42;;;;;;;;;;;14.60;99.90;;;;;;5113539;28;19919;-73
2021/05/22 09:35:10;;;;;;;;;;;14.60;99.90;;;;;;5113569;28;19915;-72
2021/05/22 09:37:43;;;;;;;;;;;14.60;99.90;;;;;;5113410;28;19908;-73
2021/05/22 09:40:11;;;;;;;;;;;14.60;99.90;;;;;;5113310;28;20393;-72
2021/05/22 09:42:39;;;;;;;;;;;14.60;99.90;;;;;;5096282;28;20016;-71
2021/05/22 09:45:20;;;;;;;;;;;14.60;99.90;;;;;;5087261;28;19921;-72
2021/05/22 09:47:47;;;;;;;;;;;14.50;99.90;;;;;;5072306;28;19909;-72
2021/05/22 09:50:34;;;;;;;;;;;14.60;99.90;;;;;;5072592;28;20271;-72
2021/05/22 09:53:01;;;;;;;;;;;14.60;99.90;;;;;;5072111;28;19916;-71
2021/05/22 09:55:28;;;;;;;;;;;14.50;99.90;;;;;;5072703;28;19908;-75
2021/05/22 09:57:56;;;;;;;;;;;14.60;99.90;;;;;;5054702;28;20355;-73
2021/05/22 10:00:25;;;;;;;;;;;14.70;99.90;;;;;;5072576;28;19995;-74
2021/05/22 10:02:52;;;;;;;;;;;14.60;99.90;;;;;;5072129;28;19920;-73
2021/05/22 10:05:25;;;;;;;;;;;14.70;99.90;;;;;;5072498;28;19919;-73
2021/05/22 10:07:53;;;;;;;;;;;14.70;99.90;;;;;;5072710;28;20272;-73
2021/05/22 10:10:20;;;;;;;;;;;14.70;99.90;;;;;;5072241;28;20282;-72
2021/05/22 10:12:47;;;;;;;;;;;14.70;99.90;;;;;;5070085;28;19916;-71
2021/05/22 10:15:15;;;;;;;;;;;14.70;99.90;;;;;;5073224;28;20389;-73
2021/05/22 10:17:43;;;;;;;;;;;14.70;99.90;;;;;;5074061;28;20363;-72
2021/05/22 10:20:10;;;;;;;;;;;14.70;99.90;;;;;;5074419;28;19908;-71
2021/05/22 10:22:37;;;;;;;;;;;14.70;99.90;;;;;;5074010;28;19946;-73
2021/05/22 10:25:07;;;;;;;;;;;14.70;99.90;;;;;;5074060;28;19986;-73
2021/05/22 10:27:35;;;;;;;;;;;14.70;99.90;;;;;;5075323;28;20247;-73
2021/05/22 10:30:03;;;;;;;;;;;14.70;99.90;;;;;;5071103;28;19951;-71
2021/05/22 10:32:31;;;;;;;;;;;14.70;99.90;;;;;;5059674;28;19920;-71
2021/05/22 10:35:07;;;;;;;;;;;14.60;99.90;;;;;;5068517;28;20279;-70
2021/05/22 10:37:36;;;;;;;;;;;14.60;99.90;;;;;;5074669;28;19909;-70
2021/05/22 10:40:04;;;;;;;;;;;14.60;99.90;;;;;;5075030;28;20367;-71
2021/05/22 10:42:30;;;;;;;;;;;14.60;99.90;;;;;;5075828;28;19912;-71
2021/05/22 10:44:58;;;;;;;;;;;14.50;99.90;;;;;;5095438;28;19939;-72
2021/05/22 10:47:29;;;;;;;;;;;14.50;99.90;;;;;;5095265;28;20373;-71
2021/05/22 10:50:02;;;;;;;;;;;14.50;99.90;;;;;;5094965;28;20334;-71
2021/05/22 10:52:30;;;;;;;;;;;14.40;99.90;;;;;;5106200;28;19923;-71
2021/05/22 10:54:57;;;;;;;;;;;14.40;99.90;;;;;;5116062;28;19969;-72
2021/05/22 10:57:25;;;;;;;;;;;14.40;99.90;;;;;;5116143;28;20010;-71
2021/05/22 11:00:09;;;;;;;;;;;14.40;99.90;;;;;;5114972;28;19912;-71
2021/05/22 11:02:41;;;;;;;;;;;14.30;99.90;;;;;;5115749;28;19908;-72
2021/05/22 11:05:25;;;;;;;;;;;14.30;99.90;;;;;;5115772;28;19929;-71
2021/05/22 11:08:04;;;;;;;;;;;14.30;99.90;;;;;;5115937;28;19916;-71
2021/05/22 11:10:37;;;;;;;;;;;14.30;99.90;;;;;;5115800;28;19916;-72
2021/05/22 11:13:04;;;;;;;;;;;14.20;99.90;;;;;;5115471;28;19973;-72
2021/05/22 11:15:46;;;;;;;;;;;14.20;99.90;;;;;;5115866;28;19915;-72
2021/05/22 11:18:13;;;;;;;;;;;14.20;99.90;;;;;;5115653;28;19980;-72
2021/05/22 11:20:41;;;;;;;;;;;14.20;99.90;;;;;;5115731;28;20377;-71
2021/05/22 11:23:08;;;;;;;;;;;14.30;99.90;;;;;;5115726;28;19907;-71
2021/05/22 11:25:52;;;;;;;;;;;14.40;99.90;;;;;;5115829;28;20254;-72
2021/05/22 11:28:23;;;;;;;;;;;14.50;99.90;;;;;;5115671;28;20479;-72
2021/05/22 11:30:56;;;;;;;;;;;14.50;99.90;;;;;;5115256;28;20003;-71
2021/05/22 11:33:23;;;;;;;;;;;14.50;99.90;;;;;;5115483;28;19965;-71
2021/05/22 11:35:51;;;;;;;;;;;14.60;99.90;;;;;;5115705;28;19908;-70
2021/05/22 11:38:17;;;;;;;;;;;14.50;99.90;;;;;;5115406;28;19931;-71
2021/05/22 11:40:44;;;;;;;;;;;14.50;99.90;;;;;;5115045;28;19908;-71
2021/05/22 11:43:31;;;;;;;;;;;14.60;99.90;;;;;;5115041;28;19934;-71
2021/05/22 11:45:59;;;;;;;;;;;14.50;99.90;;;;;;5115150;28;20232;-71
2021/05/22 11:48:43;;;;;;;;;;;14.60;99.90;;;;;;5115022;28;19908;-71
2021/05/22 11:51:11;;;;;;;;;;;14.50;99.90;;;;;;5115211;28;19915;-72
2021/05/22 11:53:40;;;;;;;;;;;14.60;99.90;;;;;;5114919;28;19911;-71
2021/05/22 11:56:16;;;;;;;;;;;14.60;99.90;;;;;;5115195;28;20278;-72
2021/05/22 11:58:48;;;;;;;;;;;14.50;99.90;;;;;;5114985;28;19908;-72
2021/05/22 12:01:14;;;;;;;;;;;14.50;99.90;;;;;;5114863;28;19908;-72
2021/05/22 12:03:42;;;;;;;;;;;14.50;99.90;;;;;;5114764;28;19908;-72
2021/05/22 12:06:12;;;;;;;;;;;14.50;99.90;;;;;;5105779;28;19913;-71
2021/05/22 12:08:38;;;;;;;;;;;14.50;99.90;;;;;;5073662;28;20002;-72
2021/05/22 12:11:16;;;;;;;;;;;14.50;99.90;;;;;;5073804;28;20359;-71
2021/05/22 12:13:52;;;;;;;;;;;14.50;99.90;;;;;;5074163;28;19954;-72
2021/05/22 12:16:19;;;;;;;;;;;14.40;99.90;;;;;;5073889;28;19908;-72
2021/05/22 12:18:46;;;;;;;;;;;14.40;99.90;;;;;;5073666;28;19935;-71
2021/05/22 12:21:20;;;;;;;;;;;14.40;99.90;;;;;;5073744;28;19931;-71
2021/05/22 12:23:47;;;;;;;;;;;14.40;99.90;;;;;;5073373;28;19912;-71
2021/05/22 12:26:14;;;;;;;;;;;14.40;99.90;;;;;;5073653;28;19908;-71
2021/05/22 12:28:40;;;;;;;;;;;14.30;99.90;;;;;;5073771;28;19961;-71
2021/05/22 12:31:07;;;;;;;;;;;14.30;99.90;;;;;;5073329;28;19995;-71
2021/05/22 12:33:34;;;;;;;;;;;14.30;99.90;;;;;;5073505;28;19995;-70
2021/05/22 12:36:02;;;;;;;;;;;14.20;99.90;;;;;;5073541;28;19912;-70
2021/05/22 12:38:45;;;;;;;;;;;14.10;99.90;;;;;;5072609;28;19924;-71
2021/05/22 12:41:13;;;;;;;;;;;14.10;99.90;;;;;;5073437;28;19912;-71
2021/05/22 12:43:46;;;;;;;;;;;14.00;99.90;;;;;;5073114;28;20298;-71
2021/05/22 12:46:46;;;;;;;;;;;14.00;99.90;;;;;;5073436;28;19916;-72
2021/05/22 12:49:19;;;;;;;;;;;14.00;99.90;;;;;;5068538;28;19979;-71
2021/05/22 12:51:57;;;;;;;;;;;13.90;99.90;;;;;;5072993;28;19956;-70
2021/05/22 12:54:25;;;;;;;;;;;13.80;99.90;;;;;;5073358;28;19916;-72
2021/05/22 12:56:58;;;;;;;;;;;13.80;99.90;;;;;;5073133;28;19909;-71
2021/05/22 12:59:25;;;;;;;;;;;13.80;99.90;;;;;;5073146;28;20367;-72
2021/05/22 13:02:10;;;;;;;;;;;13.80;99.90;;;;;;5073084;28;19916;-72
2021/05/22 13:04:37;;;;;;;;;;;13.80;99.90;;;;;;5073200;28;19962;-71
2021/05/22 13:07:03;;;;;;;;;;;13.70;99.90;;;;;;5072994;28;19999;-72
2021/05/22 13:09:30;;;;;;;;;;;13.70;99.90;;;;;;5073129;28;19974;-71
2021/05/22 13:11:58;;;;;;;;;;;13.60;99.90;;;;;;5073230;28;19965;-71
2021/05/22 13:14:24;;;;;;;;;;;13.50;99.90;;;;;;5073112;28;20359;-70
2021/05/22 13:16:55;;;;;;;;;;;13.50;99.90;;;;;;5072583;28;20375;-69
2021/05/22 13:19:41;;;;;;;;;;;13.50;99.90;;;;;;5073027;28;19908;-71
2021/05/22 13:22:37;;;;;;;;;;;13.40;99.90;;;;;;5072842;28;19909;-72
2021/05/22 13:25:04;;;;;;;;;;;13.40;99.90;;;;;;5067732;28;19909;-71
2021/05/22 13:27:31;;;;;;;;;;;13.40;99.90;;;;;;5072972;28;19958;-71
2021/05/22 13:29:59;;;;;;;;;;;13.30;99.90;;;;;;5073018;28;19940;-72
2021/05/22 13:32:26;;;;;;;;;;;13.30;99.90;;;;;;5072677;28;20011;-69
2021/05/22 13:34:53;;;;;;;;;;;13.30;99.90;;;;;;5072683;28;19915;-70
2021/05/22 13:37:20;;;;;;;;;;;13.30;99.90;;;;;;5072918;28;19927;-70
2021/05/22 13:39:47;;;;;;;;;;;13.20;99.90;;;;;;5072875;28;19909;-70
2021/05/22 13:42:13;;;;;;;;;;;13.30;99.90;;;;;;5072738;28;19916;-70
2021/05/22 13:44:40;;;;;;;;;;;13.30;99.90;;;;;;5072852;28;19958;-71
2021/05/22 13:47:07;;;;;;;;;;;13.30;99.90;;;;;;5072490;28;19909;-70
2021/05/22 13:49:34;;;;;;;;;;;13.20;99.90;;;;;;5074095;28;20351;-71
2021/05/22 13:52:02;;;;;;;;;;;13.30;99.90;;;;;;5076562;28;20014;-69
2021/05/22 13:54:29;;;;;;;;;;;13.20;99.90;;;;;;5076800;28;19957;-69
2021/05/22 13:56:55;;;;;;;;;;;13.20;99.90;;;;;;5076671;28;19913;-71
2021/05/22 13:59:22;;;;;;;;;;;13.20;99.90;;;;;;5076685;28;19908;-71
2021/05/22 14:01:49;;;;;;;;;;;13.20;99.90;;;;;;5076547;28;19909;-69
2021/05/22 14:04:16;;;;;;;;;;;13.20;99.90;;;;;;5076664;28;19962;-70
2021/05/22 14:06:43;;;;;;;;;;;13.30;99.90;;;;;;5076558;28;19909;-71
2021/05/22 14:09:10;;;;;;;;;;;13.30;99.90;;;;;;5076482;28;19916;-72
2021/05/22 14:11:38;;;;;;;;;;;13.30;99.90;;;;;;5076350;28;19924;-70
2021/05/22 14:14:05;;;;;;;;;;;13.30;99.90;;;;;;5076482;28;19908;-71
2021/05/22 14:16:32;;;;;;;;;;;13.20;99.90;;;;;;5076277;28;19909;-70
2021/05/22 14:18:59;;;;;;;;;;;13.20;99.90;;;;;;5075893;28;19936;-71
2021/05/22 14:21:25;;;;;;;;;;;13.20;99.90;;;;;;5076270;28;19908;-71
2021/05/22 14:23:52;;;;;;;;;;;13.10;99.90;;;;;;5076134;28;19934;-70
2021/05/22 14:26:20;;;;;;;;;;;13.20;99.90;;;;;;5076103;28;20004;-71